Time;durP1;ratioP1;P1;durP2;ratioP2;P2;SDS_P1;SDS_P2;PMS_P1;PMS_P2;Temp;Humidity;BMP_temperature;BMP_pressure;BME280_temperature;BME280_humidity;BME280_pressure;Samples;Min_cycle;Max_cycle;Signal;HPM_P1;HPM_P2
2023/04/23 00:00:24;;;;;;;76.68;51.13;;;;;;;8.05;100.00;100673.25;1045180;28;20353;-84
2023/04/23 00:00:57;;;;;;;81.78;52.58;;;;;;;8.03;100.00;100673.47;1044754;28;20303;-84
2023/04/23 00:01:29;;;;;;;78.75;50.95;;;;;;;7.99;100.00;100674.06;1041805;28;20307;-84
2023/04/23 00:02:01;;;;;;;76.40;48.85;;;;;;;8.13;100.00;100674.88;1036976;28;20650;-84
2023/04/23 00:02:34;;;;;;;79.97;50.63;;;;;;;8.13;100.00;100673.03;1037484;28;20692;-77
2023/04/23 00:03:08;;;;;;;75.35;50.70;;;;;;;8.05;100.00;100673.25;1041732;28;20299;-77
2023/04/23 00:03:43;;;;;;;73.97;49.22;;;;;;;8.02;100.00;100665.69;1043476;28;20357;-77
2023/04/23 00:04:17;;;;;;;73.45;47.88;;;;;;;8.03;100.00;100669.97;1043346;28;20307;-77
2023/04/23 00:04:51;;;;;;;75.93;48.83;;;;;;;8.00;100.00;100671.22;1034220;28;20305;-78
2023/04/23 00:05:26;;;;;;;78.18;52.50;;;;;;;8.06;100.00;100673.03;1031322;28;20316;-78
2023/04/23 00:05:58;;;;;;;78.45;52.38;;;;;;;8.13;100.00;100678.34;1032649;28;20305;-78
2023/04/23 00:06:31;;;;;;;79.35;52.15;;;;;;;8.09;100.00;100671.81;1038345;28;20303;-77
2023/04/23 00:07:03;;;;;;;78.68;52.58;;;;;;;7.97;100.00;100673.47;1038898;28;20292;-77
2023/04/23 00:07:35;;;;;;;70.60;48.05;;;;;;;8.05;100.00;100675.91;1034982;28;20311;-77
2023/04/23 00:08:09;;;;;;;72.38;50.47;;;;;;;8.07;100.00;100672.03;1035321;28;20387;-77
2023/04/23 00:08:41;;;;;;;80.82;54.70;;;;;;;7.98;100.00;100672.44;1036096;28;20297;-77
2023/04/23 00:09:14;;;;;;;77.03;52.25;;;;;;;7.90;100.00;100675.25;1037949;28;20300;-77
2023/04/23 00:09:46;;;;;;;74.22;48.70;;;;;;;7.94;100.00;100666.72;1032777;28;20293;-77
2023/04/23 00:10:18;;;;;;;73.00;49.35;;;;;;;8.01;100.00;100674.69;1033070;28;20302;-84
2023/04/23 00:10:49;;;;;;;74.28;49.85;;;;;;;7.97;100.00;100666.31;1031838;28;20396;-84
2023/04/23 00:11:21;;;;;;;71.05;49.78;;;;;;;8.04;100.00;100661.00;1038538;28;20303;-84
2023/04/23 00:11:53;;;;;;;79.30;51.95;;;;;;;8.05;100.00;100667.94;1037692;28;20284;-79
2023/04/23 00:12:26;;;;;;;75.10;51.63;;;;;;;8.09;100.00;100669.16;1037553;28;20297;-77
2023/04/23 00:12:58;;;;;;;75.82;51.65;;;;;;;8.02;100.00;100671.00;1035496;28;20300;-77
2023/04/23 00:13:30;;;;;;;75.32;51.72;;;;;;;8.06;100.00;100665.09;1035939;28;20300;-77
2023/04/23 00:14:02;;;;;;;71.15;48.35;;;;;;;7.96;100.00;100658.56;1039294;28;20899;-77
2023/04/23 00:14:34;;;;;;;76.38;52.30;;;;;;;8.17;100.00;100660.19;1041177;28;20300;-84
2023/04/23 00:15:06;;;;;;;73.22;52.28;;;;;;;8.10;100.00;100660.19;1044887;28;20725;-84
2023/04/23 00:15:38;;;;;;;73.00;49.53;;;;;;;8.10;100.00;100660.19;1041669;28;20308;-77
2023/04/23 00:16:11;;;;;;;81.32;54.20;;;;;;;8.15;100.00;100657.72;1039823;28;20292;-77
2023/04/23 00:16:42;;;;;;;75.72;51.00;;;;;;;8.13;100.00;100654.47;1043008;28;20409;-77
2023/04/23 00:17:14;;;;;;;79.97;52.83;;;;;;;8.12;100.00;100658.13;1041840;28;20378;-77
2023/04/23 00:17:46;;;;;;;78.13;51.15;;;;;;;8.07;100.00;100652.63;1039025;28;20315;-78
2023/04/23 00:18:18;;;;;;;81.93;52.83;;;;;;;8.10;100.00;100654.88;1034978;28;20296;-77
2023/04/23 00:18:50;;;;;;;70.90;50.30;;;;;;;8.10;100.00;100660.19;1036685;28;20312;-77
2023/04/23 00:19:22;;;;;;;73.78;50.00;;;;;;;8.13;100.00;100659.78;1040579;28;20299;-77
2023/04/23 00:19:54;;;;;;;78.18;49.22;;;;;;;8.02;100.00;100658.56;1044127;28;20299;-77
2023/04/23 00:20:26;;;;;;;74.22;51.90;;;;;;;8.04;100.00;100661.00;1043953;28;20315;-77
2023/04/23 00:20:57;;;;;;;77.47;49.03;;;;;;;7.99;100.00;100658.16;1045320;28;20329;-76
2023/04/23 00:21:30;;;;;;;74.68;50.53;;;;;;;7.94;100.00;100655.28;1042919;28;20302;-84
2023/04/23 00:22:01;;;;;;;77.50;51.10;;;;;;;7.98;100.00;100661.81;1045767;28;20385;-83
2023/04/23 00:22:33;;;;;;;73.45;52.00;;;;;;;7.97;100.00;100660.19;1044653;28;20295;-77
2023/04/23 00:23:05;;;;;;;67.25;46.38;;;;;;;7.86;100.00;100655.47;1045030;28;20455;-77
2023/04/23 00:23:38;;;;;;;67.60;46.97;;;;;;;7.88;100.00;100656.09;1043407;28;20354;-77
2023/04/23 00:24:09;;;;;;;69.43;48.00;;;;;;;7.85;100.00;100653.84;1041096;28;20292;-77
2023/04/23 00:24:41;;;;;;;68.00;48.30;;;;;;;7.89;100.00;100660.38;1034956;28;20304;-77
2023/04/23 00:25:13;;;;;;;67.93;46.63;;;;;;;7.74;100.00;100658.75;1033097;28;20292;-79
2023/04/23 00:25:45;;;;;;;68.13;47.35;;;;;;;7.66;100.00;100658.91;1034089;28;20321;-77
2023/04/23 00:26:17;;;;;;;71.15;49.35;;;;;;;7.64;100.00;100658.28;1037411;28;20308;-77
2023/04/23 00:26:49;;;;;;;66.13;47.08;;;;;;;7.70;100.00;100660.16;1039858;28;20374;-77
2023/04/23 00:27:20;;;;;;;65.60;45.65;;;;;;;7.68;100.00;100654.25;1038650;28;20314;-77
2023/04/23 00:27:53;;;;;;;68.10;46.08;;;;;;;7.79;100.00;100657.31;1040382;28;20300;-84
2023/04/23 00:28:24;;;;;;;60.30;45.47;;;;;;;7.81;100.00;100657.94;1041642;28;20295;-84
2023/04/23 00:28:56;;;;;;;77.40;50.75;;;;;;;7.72;100.00;100658.13;1039586;28;20296;-83
2023/04/23 00:29:27;;;;;;;66.40;47.00;;;;;;;7.68;100.00;100656.91;1042729;28;20311;-84
2023/04/23 00:29:59;;;;;;;68.57;48.35;;;;;;;7.68;100.00;100656.91;1040944;28;20304;-77
2023/04/23 00:30:35;;;;;;;69.70;48.65;;;;;;;7.81;100.00;100653.44;1040800;28;20682;-81
2023/04/23 00:31:06;;;;;;;67.95;49.65;;;;;;;7.88;100.00;100656.09;1040115;28;20319;-77
2023/04/23 00:31:38;;;;;;;75.72;51.78;;;;;;;7.90;100.00;100654.88;1039865;28;20304;-77
2023/04/23 00:32:10;;;;;;;69.35;49.42;;;;;;;7.93;100.00;100658.94;1045939;28;20831;-77
2023/04/23 00:32:41;;;;;;;74.60;49.47;;;;;;;7.89;100.00;100657.72;1040008;28;20315;-77
2023/04/23 00:33:13;;;;;;;76.35;51.45;;;;;;;7.97;100.00;100655.72;1036757;28;21198;-77
2023/04/23 00:33:45;;;;;;;75.88;52.28;;;;;;;7.99;100.00;100669.59;1035571;28;20319;-77
2023/04/23 00:34:16;;;;;;;78.45;51.58;;;;;;;8.05;100.00;100658.16;1035390;28;20348;-77
2023/04/23 00:34:48;;;;;;;74.05;51.80;;;;;;;8.03;100.00;100654.88;1040148;28;20299;-77
2023/04/23 00:35:20;;;;;;;73.40;53.10;;;;;;;8.05;100.00;100667.94;1040383;28;20303;-77
2023/04/23 00:35:51;;;;;;;77.90;51.53;;;;;;;8.08;100.00;100662.22;1034787;28;20316;-77
2023/04/23 00:36:24;;;;;;;81.15;53.00;;;;;;;7.91;100.00;100661.00;1035082;28;20438;-77
2023/04/23 00:36:55;;;;;;;72.07;47.55;;;;;;;7.92;100.00;100662.63;1037116;28;20359;-77
2023/04/23 00:37:27;;;;;;;66.40;46.35;;;;;;;7.97;100.00;100660.19;1036597;28;20307;-82
2023/04/23 00:37:59;;;;;;;69.00;49.05;;;;;;;7.91;100.00;100666.28;1039976;28;20433;-77
2023/04/23 00:38:30;;;;;;;72.45;48.00;;;;;;;7.95;100.00;100656.94;1031473;28;20308;-77
2023/04/23 00:39:02;;;;;;;71.85;47.15;;;;;;;7.80;100.00;100664.25;1033167;28;20861;-77
2023/04/23 00:39:36;;;;;;;67.78;47.88;;;;;;;7.81;100.00;100663.22;1027493;28;20369;-77
2023/04/23 00:40:08;;;;;;;69.18;46.53;;;;;;;7.67;100.00;100652.63;1030275;28;20346;-77
2023/04/23 00:40:40;;;;;;;66.10;46.20;;;;;;;7.63;100.00;100658.50;1036038;28;20304;-77
2023/04/23 00:41:11;;;;;;;67.43;43.90;;;;;;;7.59;100.00;100651.97;1037187;28;20298;-77
2023/04/23 00:41:43;;;;;;;61.03;46.08;;;;;;;7.57;100.00;100646.88;1045780;28;20796;-77
2023/04/23 00:42:15;;;;;;;69.15;46.80;;;;;;;7.70;100.00;100649.56;1046996;28;20624;-77
2023/04/23 00:42:48;;;;;;;75.57;48.33;;;;;;;7.80;100.00;100643.03;1039848;28;20292;-77
2023/04/23 00:43:19;;;;;;;63.45;45.20;;;;;;;7.87;100.00;100646.50;1040699;28;20300;-77
2023/04/23 00:43:52;;;;;;;64.97;47.10;;;;;;;7.78;100.00;100639.78;1033257;28;20301;-77
2023/04/23 00:44:23;;;;;;;74.78;48.83;;;;;;;7.79;100.00;100636.91;1034371;28;20308;-77
2023/04/23 00:44:55;;;;;;;74.95;51.88;;;;;;;7.88;100.00;100645.47;1029512;28;20360;-77
2023/04/23 00:45:27;;;;;;;69.78;47.20;;;;;;;7.86;100.00;100642.22;1028420;28;20340;-77
2023/04/23 00:45:59;;;;;;;71.97;49.13;;;;;;;7.95;100.00;100646.31;1028259;28;20305;-77
2023/04/23 00:46:30;;;;;;;70.35;48.40;;;;;;;7.88;100.00;100642.84;1032363;28;20312;-77
2023/04/23 00:47:02;;;;;;;68.35;47.42;;;;;;;7.74;100.00;100642.84;1032775;28;20310;-77
2023/04/23 00:47:35;;;;;;;61.60;44.97;;;;;;;7.71;100.00;100637.13;1032202;28;20313;-77
2023/04/23 00:48:07;;;;;;;68.72;47.00;;;;;;;7.64;100.00;100638.94;1029658;28;20356;-84
2023/04/23 00:48:39;;;;;;;68.00;44.80;;;;;;;7.61;100.00;100642.81;1032076;28;20308;-77
2023/04/23 00:49:11;;;;;;;61.85;44.90;;;;;;;7.65;100.00;100636.06;1038712;28;20416;-77
2023/04/23 00:49:44;;;;;;;71.13;45.78;;;;;;;7.79;100.00;100636.09;1041549;28;20318;-77
2023/04/23 00:50:16;;;;;;;68.72;46.17;;;;;;;7.89;100.00;100642.63;1047637;28;20295;-77
2023/04/23 00:50:47;;;;;;;67.50;44.20;;;;;;;7.62;100.00;100641.78;1044351;28;20299;-77
2023/04/23 00:51:22;;;;;;;60.20;43.50;;;;;;;7.57;100.00;100633.63;1041432;28;20659;-77
2023/04/23 00:51:53;;;;;;;62.63;42.55;;;;;;;7.58;100.00;100629.94;1041056;28;20343;-77
2023/04/23 00:52:25;;;;;;;60.78;44.63;;;;;;;7.57;100.00;100636.28;1041484;28;20654;-77
2023/04/23 00:52:57;;;;;;;60.47;42.90;;;;;;;7.67;100.00;100639.38;1034662;28;20305;-77
2023/04/23 00:53:28;;;;;;;61.78;44.80;;;;;;;7.67;100.00;100636.72;1034300;28;20308;-77
2023/04/23 00:54:00;;;;;;;70.03;44.20;;;;;;;7.70;100.00;100636.31;1030989;28;20301;-76
2023/04/23 00:54:32;;;;;;;60.30;42.53;;;;;;;7.68;100.00;100635.69;1033794;28;20296;-77
2023/04/23 00:55:04;;;;;;;63.75;43.70;;;;;;;7.78;100.00;100635.28;1037988;28;20350;-77
2023/04/23 00:55:35;;;;;;;67.88;46.33;;;;;;;7.75;100.00;100641.81;1038918;28;20304;-77
2023/04/23 00:56:07;;;;;;;69.63;46.38;;;;;;;7.77;100.00;100643.44;1037904;28;20296;-77
2023/04/23 00:56:39;;;;;;;63.55;44.20;;;;;;;7.90;100.00;100643.44;1032274;28;20822;-77
2023/04/23 00:57:10;;;;;;;75.25;49.28;;;;;;;7.62;100.00;100636.47;1032957;28;20806;-77
2023/04/23 00:57:42;;;;;;;70.45;48.25;;;;;;;7.60;100.00;100637.69;1035765;28;20435;-77
2023/04/23 00:58:14;;;;;;;74.57;46.78;;;;;;;7.56;100.00;100631.19;1036031;28;20833;-77
2023/04/23 00:58:46;;;;;;;67.55;46.95;;;;;;;7.72;100.00;100638.75;1036035;28;20340;-77
2023/04/23 00:59:18;;;;;;;68.18;44.72;;;;;;;7.69;100.00;100637.31;1041884;28;20299;-82
2023/04/23 00:59:50;;;;;;;69.57;46.70;;;;;;;7.78;100.00;100634.47;1042124;28;20319;-77
2023/04/23 01:00:21;;;;;;;79.10;51.88;;;;;;;7.89;100.00;100633.84;1043952;28;20839;-77
2023/04/23 01:00:53;;;;;;;82.47;51.85;;;;;;;7.85;100.00;100636.09;1036726;28;20301;-77
2023/04/23 01:01:24;;;;;;;71.88;48.05;;;;;;;7.79;100.00;100638.75;1032278;28;20695;-77
2023/04/23 01:01:57;;;;;;;76.35;51.28;;;;;;;7.70;100.00;100641.63;1031737;28;20309;-77
2023/04/23 01:02:29;;;;;;;78.80;52.08;;;;;;;7.71;100.00;100645.91;1032295;28;20305;-77
2023/04/23 01:03:02;;;;;;;67.70;46.70;;;;;;;7.80;100.00;100643.84;1038385;28;20383;-77
2023/04/23 01:03:35;;;;;;;69.03;47.15;;;;;;;7.68;100.00;100634.88;1038311;28;20307;-77
2023/04/23 01:04:08;;;;;;;72.88;48.80;;;;;;;7.86;100.00;100642.22;1039739;28;20362;-77
2023/04/23 01:04:42;;;;;;;74.65;49.63;;;;;;;7.74;100.00;100629.56;1039952;28;20363;-77
2023/04/23 01:05:15;;;;;;;69.22;47.83;;;;;;;7.61;100.00;100634.03;1041073;28;20805;-77
2023/04/23 01:05:47;;;;;;;67.85;45.63;;;;;;;7.63;100.00;100637.28;1044117;28;20750;-77
2023/04/23 01:06:18;;;;;;;67.97;44.33;;;;;;;7.69;100.00;100634.69;1044094;28;20377;-77
2023/04/23 01:06:50;;;;;;;68.75;48.03;;;;;;;7.70;100.00;100628.34;1045810;28;20302;-77
2023/04/23 01:07:22;;;;;;;71.38;46.28;;;;;;;7.61;100.00;100640.16;1040349;28;20307;-77
2023/04/23 01:07:54;;;;;;;66.45;46.28;;;;;;;7.61;100.00;100634.84;1033768;28;20315;-77
2023/04/23 01:08:25;;;;;;;71.43;46.90;;;;;;;7.62;100.00;100630.38;1035599;28;20303;-77
2023/04/23 01:08:57;;;;;;;70.38;47.63;;;;;;;7.54;100.00;100628.72;1036098;28;20336;-77
2023/04/23 01:09:31;;;;;;;66.13;47.03;;;;;;;7.43;100.00;100632.78;1037104;28;20375;-77
2023/04/23 01:10:04;;;;;;;64.43;45.17;;;;;;;7.48;100.00;100640.13;1028127;28;20365;-77
2023/04/23 01:10:36;;;;;;;66.85;45.38;;;;;;;7.55;100.00;100635.66;1031099;28;20293;-77
2023/04/23 01:11:08;;;;;;;66.03;45.65;;;;;;;7.65;100.00;100630.78;1033243;28;20311;-77
2023/04/23 01:11:42;;;;;;;63.00;43.03;;;;;;;7.67;100.00;100628.75;1036367;28;20319;-77
2023/04/23 01:12:15;;;;;;;70.72;45.38;;;;;;;7.69;100.00;100632.03;1037856;28;20427;-77
2023/04/23 01:12:47;;;;;;;60.55;43.78;;;;;;;7.55;100.00;100633.00;1035688;28;20349;-77
2023/04/23 01:13:21;;;;;;;61.50;44.17;;;;;;;7.62;100.00;100633.84;1035323;28;20316;-77
2023/04/23 01:13:52;;;;;;;58.63;42.22;;;;;;;7.80;100.00;100637.75;1036610;28;20308;-83
2023/04/23 01:14:24;;;;;;;61.15;42.67;;;;;;;7.85;100.00;100635.28;1033871;28;20309;-83
2023/04/23 01:14:56;;;;;;;67.10;45.65;;;;;;;7.65;100.00;100633.41;1034379;28;20308;-84
2023/04/23 01:15:28;;;;;;;66.03;45.00;;;;;;;7.46;100.00;100639.53;1036450;28;20300;-84
2023/04/23 01:16:00;;;;;;;66.28;44.35;;;;;;;7.57;100.00;100633.63;1036598;28;20296;-84
2023/04/23 01:16:32;;;;;;;61.97;44.10;;;;;;;7.60;100.00;100637.69;1040336;28;20667;-84
2023/04/23 01:17:04;;;;;;;70.25;45.85;;;;;;;7.66;100.00;100642.19;1037124;28;20354;-84
2023/04/23 01:17:37;;;;;;;66.35;46.80;;;;;;;7.81;100.00;100634.06;1036537;28;20312;-84
2023/04/23 01:18:09;;;;;;;71.32;45.75;;;;;;;7.86;100.00;100634.25;1034500;28;20301;-80
2023/04/23 01:18:42;;;;;;;67.40;44.92;;;;;;;7.72;100.00;100636.91;1036170;28;20304;-84
2023/04/23 01:19:14;;;;;;;59.80;40.88;;;;;;;7.64;100.00;100638.94;1038777;28;20354;-83
2023/04/23 01:19:46;;;;;;;59.63;42.38;;;;;;;7.51;100.00;100637.09;1036935;28;20323;-83
2023/04/23 01:20:18;;;;;;;55.88;39.10;;;;;;;7.59;100.00;100636.88;1037667;28;20702;-77
2023/04/23 01:20:50;;;;;;;54.20;39.70;;;;;;;7.41;100.00;100634.00;1033951;28;20305;-77
2023/04/23 01:21:22;;;;;;;58.85;40.42;;;;;;;7.45;100.00;100635.25;1035657;28;20296;-77
2023/04/23 01:21:55;;;;;;;63.88;42.25;;;;;;;7.23;100.00;100631.91;1036283;28;20411;-77
2023/04/23 01:22:26;;;;;;;61.33;43.42;;;;;;;7.24;100.00;100638.03;1031793;28;20320;-77
2023/04/23 01:22:58;;;;;;;59.75;42.53;;;;;;;7.45;100.00;100637.91;1033681;28;20768;-77
2023/04/23 01:23:30;;;;;;;63.13;42.65;;;;;;;7.47;100.00;100627.91;1032594;28;20686;-77
2023/04/23 01:24:05;;;;;;;60.88;42.85;;;;;;;7.49;100.00;100636.47;1041607;28;20292;-77
2023/04/23 01:24:36;;;;;;;69.93;46.40;;;;;;;7.56;100.00;100629.34;1044238;28;20816;-77
2023/04/23 01:25:09;;;;;;;68.80;44.22;;;;;;;7.48;100.00;100629.53;1036371;28;20786;-77
2023/04/23 01:25:41;;;;;;;58.08;39.92;;;;;;;7.54;100.00;100631.38;1035798;28;20303;-76
2023/04/23 01:26:13;;;;;;;63.13;43.28;;;;;;;7.54;100.00;100633.22;1031785;28;20364;-76
2023/04/23 01:26:45;;;;;;;62.75;40.97;;;;;;;7.27;100.00;100633.16;1028952;28;20286;-76
2023/04/23 01:27:18;;;;;;;61.45;43.05;;;;;;;7.18;100.00;100633.53;1033299;28;20297;-76
2023/04/23 01:27:53;;;;;;;70.03;43.65;;;;;;;7.17;100.00;100630.06;1032166;28;20357;-82
2023/04/23 01:28:25;;;;;;;57.13;41.40;;;;;;;7.24;100.00;100628.25;1038641;28;20305;-76
2023/04/23 01:28:58;;;;;;;65.60;41.85;;;;;;;7.30;100.00;100631.94;1038144;28;20731;-76
2023/04/23 01:29:31;;;;;;;87.22;40.17;;;;;;;6.95;100.00;100624.06;1034918;28;20819;-76
2023/04/23 01:30:04;;;;;;;62.45;38.45;;;;;;;6.93;100.00;100626.09;1036817;28;20443;-76
2023/04/23 01:30:37;;;;;;;63.03;41.45;;;;;;;6.90;100.00;100631.00;1035914;28;20301;-77
2023/04/23 01:31:09;;;;;;;64.53;43.78;;;;;;;6.90;100.00;100631.00;1040075;28;20766;-76
2023/04/23 01:31:41;;;;;;;61.30;41.58;;;;;;;6.79;100.00;100629.69;1036563;28;20315;-76
2023/04/23 01:32:13;;;;;;;60.15;41.30;;;;;;;6.87;100.00;100624.25;1036069;28;20399;-76
2023/04/23 01:32:46;;;;;;;62.53;38.30;;;;;;;6.71;100.00;100627.22;1031835;28;20309;-76
2023/04/23 01:33:18;;;;;;;111.85;41.22;;;;;;;6.69;100.00;100623.97;1029003;28;20826;-76
2023/04/23 01:33:50;;;;;;;60.47;38.95;;;;;;;6.64;100.00;100626.38;1035961;28;20300;-76
2023/04/23 01:34:22;;;;;;;55.83;40.55;;;;;;;7.06;100.00;100628.78;1033099;28;20297;-76
2023/04/23 01:34:55;;;;;;;61.67;42.63;;;;;;;7.01;100.00;100628.56;1041774;28;20327;-76
2023/04/23 01:35:27;;;;;;;62.15;43.47;;;;;;;6.87;100.00;100631.38;1040001;28;20319;-76
2023/04/23 01:35:59;;;;;;;61.92;42.00;;;;;;;6.90;100.00;100628.34;1040822;28;20299;-76
2023/04/23 01:36:32;;;;;;;61.40;41.83;;;;;;;6.91;100.00;100628.13;1040980;28;20295;-82
2023/04/23 01:37:04;;;;;;;67.78;42.30;;;;;;;6.78;100.00;100620.94;1040737;28;20571;-83
2023/04/23 01:37:37;;;;;;;72.00;40.63;;;;;;;6.75;100.00;100623.16;1044471;28;20351;-76
2023/04/23 01:38:13;;;;;;;61.63;39.70;;;;;;;6.72;100.00;100623.56;1032832;28;20765;-77
2023/04/23 01:38:45;;;;;;;64.28;39.38;;;;;;;6.63;100.00;100630.84;1037779;28;20300;-82
2023/04/23 01:39:17;;;;;;;54.88;39.40;;;;;;;6.57;100.00;100630.78;1037680;28;20300;-76
2023/04/23 01:39:48;;;;;;;70.53;40.38;;;;;;;6.59;100.00;100634.09;1039258;28;20301;-76
2023/04/23 01:40:20;;;;;;;56.90;38.88;;;;;;;6.62;100.00;100623.13;1043844;28;20306;-76
2023/04/23 01:40:52;;;;;;;56.50;37.22;;;;;;;6.58;100.00;100632.47;1036772;28;20670;-77
2023/04/23 01:41:24;;;;;;;54.55;38.83;;;;;;;6.56;100.00;100634.44;1037191;28;20354;-83
2023/04/23 01:41:57;;;;;;;62.40;38.17;;;;;;;6.48;100.00;100633.59;1037216;28;20595;-83
2023/04/23 01:42:29;;;;;;;60.25;39.20;;;;;;;6.50;100.00;100631.59;1042073;28;20304;-82
2023/04/23 01:43:00;;;;;;;47.65;34.13;;;;;;;6.43;100.00;100635.22;1041046;28;20738;-83
2023/04/23 01:43:32;;;;;;;55.70;34.88;;;;;;;6.32;100.00;100626.00;1039839;28;20734;-83
2023/04/23 01:44:04;;;;;;;102.03;34.03;;;;;;;6.30;100.00;100625.38;1030340;28;20301;-82
2023/04/23 01:44:35;;;;;;;48.95;35.03;;;;;;;6.33;100.00;100632.09;1030471;28;20294;-82
2023/04/23 01:45:08;;;;;;;54.03;35.22;;;;;;;6.49;100.00;100629.94;1033381;28;20799;-83
2023/04/23 01:45:40;;;;;;;43.35;32.60;;;;;;;6.47;100.00;100631.97;1029296;28;20785;-83
2023/04/23 01:46:12;;;;;;;46.10;34.15;;;;;;;6.45;100.00;100626.06;1033198;28;20297;-83
2023/04/23 01:46:44;;;;;;;52.72;31.95;;;;;;;6.32;100.00;100628.63;1040063;28;20311;-83
2023/04/23 01:47:18;;;;;;;53.78;31.08;;;;;;;6.29;100.00;100623.69;1036448;28;20308;-83
2023/04/23 01:47:50;;;;;;;48.33;31.55;;;;;;;6.31;100.00;100620.91;1045104;28;20761;-82
2023/04/23 01:48:23;;;;;;;52.53;31.45;;;;;;;6.24;100.00;100625.31;1043088;28;20291;-83
2023/04/23 01:48:54;;;;;;;98.65;31.08;;;;;;;6.17;100.00;100618.16;1041545;28;20638;-82
2023/04/23 01:49:26;;;;;;;73.20;30.67;;;;;;;6.17;100.00;100619.97;1038146;28;20296;-82
2023/04/23 01:49:58;;;;;;;54.03;30.17;;;;;;;6.23;100.00;100621.84;1035941;28;20312;-83
2023/04/23 01:50:30;;;;;;;44.45;28.75;;;;;;;6.33;100.00;100619.69;1032999;28;20308;-82
2023/04/23 01:51:02;;;;;;;172.95;31.20;;;;;;;6.14;100.00;100620.34;1032859;28;20791;-82
2023/04/23 01:51:34;;;;;;;113.03;30.25;;;;;;;6.10;100.00;100619.13;1028918;28;20298;-83
2023/04/23 01:52:06;;;;;;;69.60;29.23;;;;;;;6.20;100.00;100619.59;1032338;28;20668;-83
2023/04/23 01:52:37;;;;;;;42.25;30.75;;;;;;;6.26;100.00;100616.16;1032071;28;20297;-83
2023/04/23 01:53:09;;;;;;;47.92;32.53;;;;;;;6.47;100.00;100615.28;1034999;28;20296;-82
2023/04/23 01:53:41;;;;;;;52.65;31.23;;;;;;;6.42;100.00;100607.13;1036321;28;20778;-82
2023/04/23 01:54:12;;;;;;;41.90;31.67;;;;;;;6.55;100.00;100611.66;1041504;28;20303;-83
2023/04/23 01:54:44;;;;;;;54.50;30.45;;;;;;;6.26;100.00;100612.69;1044412;28;20295;-81
2023/04/23 01:55:17;;;;;;;100.65;31.88;;;;;;;6.28;100.00;100613.31;1046571;28;20416;-77
2023/04/23 01:55:50;;;;;;;57.97;31.67;;;;;;;6.29;100.00;100612.31;1044489;28;20309;-77
2023/04/23 01:56:27;;;;;;;85.05;34.45;;;;;;;6.29;100.00;100615.78;1036199;28;20395;-80
2023/04/23 01:56:59;;;;;;;48.00;32.67;;;;;;;6.47;100.00;100602.06;1028530;28;20424;-83
2023/04/23 01:57:31;;;;;;;49.88;34.83;;;;;;;6.50;100.00;100610.41;1031227;28;20313;-81
2023/04/23 01:58:03;;;;;;;55.42;34.08;;;;;;;6.43;100.00;100606.09;1039305;28;20299;-83
2023/04/23 01:58:35;;;;;;;49.22;34.05;;;;;;;6.62;100.00;100610.69;1035266;28;20766;-83
2023/04/23 01:59:06;;;;;;;61.53;33.92;;;;;;;6.59;100.00;100613.75;1040632;28;20347;-83
2023/04/23 01:59:39;;;;;;;49.33;30.00;;;;;;;6.71;100.00;100611.34;1039666;28;20789;-82
2023/04/23 02:00:11;;;;;;;49.10;29.42;;;;;;;6.89;100.00;100609.00;1032169;28;20297;-82
2023/04/23 02:00:43;;;;;;;65.18;29.70;;;;;;;6.96;100.00;100604.53;1037861;28;20296;-82
2023/04/23 02:01:15;;;;;;;73.90;30.27;;;;;;;7.02;100.00;100611.66;1039022;28;20325;-82
2023/04/23 02:01:47;;;;;;;41.42;29.48;;;;;;;7.08;100.00;100612.72;1037725;28;20304;-82
2023/04/23 02:02:19;;;;;;;56.88;35.85;;;;;;;6.90;100.00;100610.63;1042293;28;20376;-82
2023/04/23 02:02:52;;;;;;;58.33;36.72;;;;;;;6.64;100.00;100605.22;1036537;28;20381;-82
2023/04/23 02:03:24;;;;;;;97.97;31.67;;;;;;;6.84;100.00;100619.31;1035534;28;21015;-82
2023/04/23 02:03:57;;;;;;;73.80;31.55;;;;;;;6.81;100.00;100609.13;1034258;28;20914;-82
2023/04/23 02:04:30;;;;;;;50.55;31.02;;;;;;;6.87;100.00;100613.66;1035622;28;20304;-82
2023/04/23 02:05:03;;;;;;;51.05;31.92;;;;;;;6.94;100.00;100614.50;1035999;28;20389;-82
2023/04/23 02:05:35;;;;;;;52.58;33.20;;;;;;;6.98;100.00;100609.63;1038716;28;20296;-83
2023/04/23 02:06:07;;;;;;;82.68;32.15;;;;;;;6.88;100.00;100607.34;1044427;28;20678;-82
2023/04/23 02:06:41;;;;;;;78.72;33.83;;;;;;;6.86;100.00;100617.31;1039880;28;20315;-82
2023/04/23 02:07:13;;;;;;;51.67;33.20;;;;;;;6.93;100.00;100610.22;1031915;28;20317;-82
2023/04/23 02:07:46;;;;;;;52.38;33.50;;;;;;;6.99;100.00;100609.41;1031752;28;20305;-84
2023/04/23 02:08:18;;;;;;;59.17;35.13;;;;;;;6.96;100.00;100612.47;1031731;28;20424;-82
2023/04/23 02:08:50;;;;;;;48.08;34.17;;;;;;;7.07;100.00;100613.72;1035706;28;20716;-77
2023/04/23 02:09:22;;;;;;;54.00;33.15;;;;;;;7.17;100.00;100606.22;1034161;28;20387;-76
2023/04/23 02:09:53;;;;;;;52.88;36.17;;;;;;;7.16;100.00;100606.44;1036131;28;20329;-77
2023/04/23 02:10:25;;;;;;;59.83;40.40;;;;;;;7.07;100.00;100603.94;1039560;28;20771;-78
2023/04/23 02:10:56;;;;;;;62.10;41.03;;;;;;;7.04;100.00;100612.28;1037745;28;20296;-76
2023/04/23 02:11:28;;;;;;;60.67;39.78;;;;;;;6.97;100.00;100608.81;1040646;28;20307;-82
2023/04/23 02:12:02;;;;;;;56.75;40.55;;;;;;;6.96;100.00;100607.19;1044165;28;20326;-84
2023/04/23 02:12:35;;;;;;;59.95;39.35;;;;;;;7.05;100.00;100608.63;1044543;28;20714;-84
2023/04/23 02:13:07;;;;;;;66.78;44.53;;;;;;;7.16;100.00;100612.53;1043921;28;20306;-83
2023/04/23 02:13:38;;;;;;;61.42;40.50;;;;;;;7.27;100.00;100609.31;1042377;28;20303;-84
2023/04/23 02:14:10;;;;;;;57.47;40.72;;;;;;;7.27;100.00;100608.50;1031080;28;20320;-84
2023/04/23 02:14:42;;;;;;;62.13;42.20;;;;;;;7.35;100.00;100609.13;1031445;28;20312;-83
2023/04/23 02:15:14;;;;;;;66.60;42.72;;;;;;;7.27;100.00;100603.19;1038063;28;20320;-84
2023/04/23 02:15:46;;;;;;;67.10;44.20;;;;;;;7.20;100.00;100605.00;1036324;28;20367;-84
2023/04/23 02:16:18;;;;;;;65.72;43.70;;;;;;;7.36;100.00;100596.69;1032277;28;20784;-84
2023/04/23 02:16:50;;;;;;;66.35;44.78;;;;;;;7.34;100.00;100601.38;1036001;28;20770;-84
2023/04/23 02:17:22;;;;;;;70.35;45.13;;;;;;;7.34;100.00;100604.00;1036293;28;20293;-83
2023/04/23 02:17:54;;;;;;;78.95;47.22;;;;;;;7.34;100.00;100591.59;1033468;28;20297;-84
2023/04/23 02:18:26;;;;;;;79.82;49.42;;;;;;;7.30;100.00;100606.25;1038224;28;20848;-84
2023/04/23 02:18:58;;;;;;;78.70;49.30;;;;;;;7.32;100.00;100596.28;1037811;28;20825;-84
2023/04/23 02:19:33;;;;;;;75.85;47.25;;;;;;;7.38;100.00;100607.88;1046144;28;20306;-84
2023/04/23 02:20:08;;;;;;;77.10;48.13;;;;;;;7.34;100.00;100601.38;1044155;28;20398;-84
2023/04/23 02:20:40;;;;;;;72.68;47.67;;;;;;;7.38;100.00;100599.94;1040185;28;20307;-84
2023/04/23 02:21:12;;;;;;;83.82;51.10;;;;;;;7.54;100.00;100601.41;1040388;28;20311;-84
2023/04/23 02:21:44;;;;;;;76.40;47.42;;;;;;;7.50;100.00;100595.69;1037234;28;20300;-83
2023/04/23 02:22:16;;;;;;;77.18;48.17;;;;;;;7.47;100.00;100600.59;1036584;28;20403;-83
2023/04/23 02:22:49;;;;;;;79.90;48.45;;;;;;;7.46;100.00;100601.59;1037502;28;20797;-83
2023/04/23 02:23:21;;;;;;;76.32;47.28;;;;;;;7.28;100.00;100602.19;1036131;28;20377;-83
2023/04/23 02:23:53;;;;;;;76.00;49.20;;;;;;;7.28;100.00;100602.19;1037086;28;20721;-82
2023/04/23 02:24:24;;;;;;;76.60;48.47;;;;;;;7.21;100.00;100604.81;1036818;28;20917;-76
2023/04/23 02:24:57;;;;;;;75.53;47.30;;;;;;;7.29;100.00;100601.16;1036099;28;20293;-76
2023/04/23 02:25:31;;;;;;;67.63;46.40;;;;;;;7.19;100.00;100600.72;1035134;28;20304;-76
2023/04/23 02:26:02;;;;;;;72.35;46.25;;;;;;;7.20;100.00;100600.53;1039018;28;20294;-76
2023/04/23 02:26:34;;;;;;;80.38;48.53;;;;;;;7.14;100.00;100596.03;1039624;28;20798;-76